createdAt,value
2018-09-18T00:00:56.831Z,79.76
2018-09-18T00:01:57.286Z,79.71
2018-09-18T00:02:57.928Z,79.60
2018-09-18T00:03:58.209Z,79.60
2018-09-18T00:04:58.822Z,79.87
2018-09-18T00:05:59.706Z,79.66
2018-09-18T00:07:00.495Z,79.53
2018-09-18T00:08:00.766Z,79.55
2018-09-18T00:09:00.741Z,79.01
2018-09-18T00:10:01.494Z,78.91
2018-09-18T00:11:02.265Z,78.92
2018-09-18T00:12:02.551Z,78.90
2018-09-18T00:13:02.889Z,78.67
2018-09-18T00:14:02.943Z,78.57
2018-09-18T00:15:03.462Z,78.64
2018-09-18T00:16:04.448Z,78.46
2018-09-18T00:17:04.700Z,78.50
2018-09-18T00:18:05.531Z,78.38
2018-09-18T00:19:06.328Z,78.55
2018-09-18T00:20:06.830Z,78.96
2018-09-18T00:21:07.467Z,78.71
2018-09-18T00:22:07.834Z,78.96
2018-09-18T00:23:08.229Z,78.87
2018-09-18T00:23:16.270Z,79.12
2018-09-18T00:24:17.773Z,79.17
2018-09-18T00:25:17.151Z,79.43
2018-09-18T00:26:18.897Z,79.15
2018-09-18T00:27:19.447Z,79.00
2018-09-18T00:28:19.890Z,79.31
2018-09-18T00:29:20.303Z,79.25
2018-09-18T00:30:20.838Z,79.60
2018-09-18T00:31:21.214Z,79.75
2018-09-18T00:32:21.836Z,79.61
2018-09-18T00:33:22.829Z,79.62
2018-09-18T00:34:23.712Z,80.06
2018-09-18T00:35:24.430Z,80.15
2018-09-18T00:36:24.963Z,79.87
2018-09-18T00:37:25.937Z,80.03
2018-09-18T00:38:26.761Z,80.13
2018-09-18T00:39:27.712Z,79.95
2018-09-18T00:40:28.214Z,79.94
2018-09-18T00:41:28.585Z,80.05
2018-09-18T00:42:29.035Z,79.94
2018-09-18T00:43:29.463Z,79.77
2018-09-18T00:44:30.079Z,79.56
2018-09-18T00:45:30.567Z,79.31
2018-09-18T00:46:30.617Z,79.47
2018-09-18T00:47:31.043Z,79.16
2018-09-18T00:48:31.430Z,79.22
2018-09-18T00:49:31.974Z,79.26
2018-09-18T00:50:32.453Z,79.50
2018-09-18T00:51:32.881Z,79.78
2018-09-18T00:52:33.628Z,79.83
2018-09-18T00:53:34.000Z,79.91
2018-09-18T00:54:34.945Z,79.79
2018-09-18T00:55:35.356Z,79.91
2018-09-18T00:56:36.233Z,79.75
2018-09-18T00:57:36.693Z,79.76
2018-09-18T00:58:37.219Z,79.62
2018-09-18T00:59:38.129Z,80.14
2018-09-18T01:00:38.586Z,80.20
2018-09-18T01:01:39.430Z,80.18
2018-09-18T01:02:39.937Z,80.05
2018-09-18T01:03:40.435Z,80.57
2018-09-18T01:04:40.797Z,80.51
2018-09-18T01:05:41.174Z,80.38
2018-09-18T01:06:41.582Z,80.42
2018-09-18T01:07:42.035Z,80.27
2018-09-18T01:07:51.968Z,80.02
2018-09-18T01:08:53.387Z,80.04
2018-09-18T01:09:54.157Z,79.72
2018-09-18T01:10:54.575Z,79.80
2018-09-18T01:11:55.562Z,80.18
2018-09-18T01:12:56.205Z,80.07
2018-09-18T01:13:56.781Z,80.12
2018-09-18T01:14:57.137Z,80.25
2018-09-18T01:15:57.738Z,80.33
2018-09-18T01:16:58.210Z,80.65
2018-09-18T01:17:58.617Z,80.62
2018-09-18T01:18:58.941Z,80.76
2018-09-18T01:19:59.326Z,80.49
2018-09-18T01:20:59.804Z,80.83
2018-09-18T01:22:00.421Z,81.11
2018-09-18T01:23:00.840Z,80.77
2018-09-18T01:24:01.616Z,80.75
2018-09-18T01:25:02.205Z,80.85
2018-09-18T01:26:02.612Z,81.02
2018-09-18T01:27:03.049Z,81.43
2018-09-18T01:28:03.607Z,81.63
2018-09-18T01:29:04.082Z,81.54
2018-09-18T01:30:04.783Z,81.59
2018-09-18T01:31:05.270Z,81.87
2018-09-18T01:32:05.749Z,81.78
2018-09-18T01:33:06.180Z,81.86
2018-09-18T01:34:06.707Z,81.32
2018-09-18T01:35:07.126Z,81.46
2018-09-18T01:36:07.546Z,81.59
2018-09-18T01:37:08.306Z,81.83
2018-09-18T01:38:08.839Z,81.76
2018-09-18T01:39:09.442Z,81.57
2018-09-18T01:40:09.645Z,81.89
2018-09-18T01:41:10.330Z,82.09
2018-09-18T01:42:10.599Z,82.14
2018-09-18T01:43:10.878Z,82.00
2018-09-18T01:44:11.231Z,82.25
2018-09-18T01:45:11.577Z,82.33
2018-09-18T01:46:11.955Z,82.46
2018-09-18T01:47:12.452Z,82.74
2018-09-18T01:48:12.968Z,82.75
2018-09-18T01:49:13.352Z,82.81
2018-09-18T01:50:14.030Z,83.28
2018-09-18T01:51:14.292Z,83.12
2018-09-18T01:52:14.975Z,82.98
2018-09-18T01:52:23.314Z,83.27
2018-09-18T01:53:24.058Z,83.30
2018-09-18T01:54:23.481Z,83.17
2018-09-18T01:55:25.013Z,83.46
2018-09-18T01:56:25.678Z,83.70
2018-09-18T01:57:26.059Z,83.44
2018-09-18T01:58:26.487Z,83.48
2018-09-18T01:59:26.934Z,83.70
2018-09-18T02:00:27.360Z,83.41
2018-09-18T02:01:27.747Z,83.44
2018-09-18T02:02:28.239Z,83.10
2018-09-18T02:03:28.751Z,82.81
2018-09-18T02:04:29.104Z,82.72
2018-09-18T02:05:29.670Z,82.68
2018-09-18T02:06:30.088Z,82.58
2018-09-18T02:07:30.384Z,82.73
2018-09-18T02:08:30.777Z,82.44
2018-09-18T02:09:31.333Z,82.41
2018-09-18T02:10:31.757Z,82.79
2018-09-18T02:11:32.261Z,83.00
2018-09-18T02:12:32.742Z,83.04
2018-09-18T02:13:33.184Z,83.36
2018-09-18T02:14:33.812Z,83.68
2018-09-18T02:15:34.243Z,84.03
2018-09-18T02:16:34.643Z,83.58
2018-09-18T02:17:35.069Z,83.29
2018-09-18T02:18:35.748Z,83.79
2018-09-18T02:19:36.406Z,83.94
2018-09-18T02:20:36.422Z,83.93
2018-09-18T02:21:37.219Z,83.84
2018-09-18T02:22:37.685Z,84.03
2018-09-18T02:23:38.526Z,84.06
2018-09-18T02:24:39.475Z,84.25
2018-09-18T02:25:40.086Z,84.12
2018-09-18T02:26:40.444Z,84.41
2018-09-18T02:27:40.800Z,84.47
2018-09-18T02:28:41.212Z,84.13
2018-09-18T02:29:41.874Z,83.77
2018-09-18T02:30:42.420Z,83.75
2018-09-18T02:31:43.031Z,84.06
2018-09-18T02:32:43.624Z,83.92
2018-09-18T02:33:44.006Z,84.38
2018-09-18T02:34:44.532Z,84.03
2018-09-18T02:35:44.979Z,84.29
2018-09-18T02:35:53.324Z,83.93
2018-09-18T02:36:54.839Z,83.92
2018-09-18T02:37:55.853Z,84.21
2018-09-18T02:38:56.469Z,84.10
2018-09-18T02:39:57.052Z,84.18
2018-09-18T02:40:57.765Z,84.48
2018-09-18T02:41:58.431Z,84.59
2018-09-18T02:42:58.537Z,84.42
2018-09-18T02:43:59.446Z,84.74
2018-09-18T02:44:59.761Z,85.12
2018-09-18T02:46:00.056Z,85.07
2018-09-18T02:47:00.151Z,85.19
2018-09-18T02:48:00.684Z,85.65
2018-09-18T02:49:01.494Z,85.42
2018-09-18T02:50:01.579Z,85.62
2018-09-18T02:51:02.027Z,85.29
2018-09-18T02:52:02.779Z,85.37
2018-09-18T02:53:03.235Z,86.22
2018-09-18T02:54:04.141Z,85.54
2018-09-18T02:55:05.079Z,85.56
2018-09-18T02:56:05.798Z,86.17
2018-09-18T02:57:06.517Z,86.45
2018-09-18T02:58:06.785Z,86.19
2018-09-18T02:59:07.348Z,86.02
2018-09-18T03:00:07.908Z,85.61
2018-09-18T03:01:08.264Z,85.57
2018-09-18T03:02:08.949Z,85.64
2018-09-18T03:03:09.493Z,85.94
2018-09-18T03:04:10.329Z,85.63
2018-09-18T03:05:10.912Z,85.61
2018-09-18T03:06:11.209Z,85.85
2018-09-18T03:07:10.725Z,86.09
2018-09-18T03:08:12.676Z,86.37
2018-09-18T03:09:12.973Z,86.20
2018-09-18T03:10:13.485Z,86.22
2018-09-18T03:11:13.995Z,86.05
2018-09-18T03:12:13.265Z,85.91
2018-09-18T03:13:14.738Z,86.23
2018-09-18T03:14:15.699Z,86.22
2018-09-18T03:15:16.062Z,86.10
2018-09-18T03:16:16.502Z,86.10
2018-09-18T03:17:17.142Z,86.67
2018-09-18T03:18:17.462Z,86.53
2018-09-18T03:19:17.829Z,86.19
2018-09-18T03:20:18.606Z,86.10
2018-09-18T03:21:18.871Z,86.08
2018-09-18T03:21:27.338Z,86.29
2018-09-18T03:22:28.787Z,86.27
2018-09-18T03:23:29.063Z,86.17
2018-09-18T03:24:29.596Z,86.56
2018-09-18T03:25:30.064Z,86.52
2018-09-18T03:26:30.348Z,86.51
2018-09-18T03:27:30.726Z,86.56
2018-09-18T03:28:30.098Z,86.77
2018-09-18T03:29:31.588Z,86.64
2018-09-18T03:30:31.870Z,86.94
2018-09-18T03:31:32.216Z,87.39
2018-09-18T03:32:32.775Z,87.09
2018-09-18T03:33:33.132Z,86.94
2018-09-18T03:34:33.960Z,87.07
2018-09-18T03:35:33.306Z,86.87
2018-09-18T03:36:33.552Z,87.51
2018-09-18T03:37:34.971Z,87.67
2018-09-18T03:38:35.341Z,87.19
2018-09-18T03:39:35.633Z,87.57
2018-09-18T03:40:36.340Z,87.29
2018-09-18T03:41:36.592Z,87.36
2018-09-18T03:42:36.842Z,87.61
2018-09-18T03:43:37.459Z,87.50
2018-09-18T03:44:37.473Z,87.57
2018-09-18T03:45:37.914Z,87.58
2018-09-18T03:46:38.378Z,87.53
2018-09-18T03:47:38.953Z,87.42
2018-09-18T03:48:39.648Z,87.45
2018-09-18T03:49:40.026Z,87.61
2018-09-18T03:50:40.383Z,87.29
2018-09-18T03:51:40.741Z,87.24
2018-09-18T03:52:41.123Z,86.99
2018-09-18T03:53:41.428Z,87.55
2018-09-18T03:54:41.748Z,87.51
2018-09-18T03:55:42.009Z,87.19
2018-09-18T03:56:41.477Z,87.16
2018-09-18T03:57:43.217Z,87.00
2018-09-18T03:58:43.675Z,87.04
2018-09-18T03:59:44.214Z,87.53
2018-09-18T04:00:44.534Z,87.59
2018-09-18T04:01:45.029Z,87.19
2018-09-18T04:02:45.403Z,87.48
2018-09-18T04:03:44.975Z,87.38
2018-09-18T04:04:46.609Z,87.58
2018-09-18T04:05:46.977Z,87.57
2018-09-18T04:06:47.216Z,87.67
2018-09-18T04:07:47.491Z,87.75
2018-09-18T04:08:47.789Z,87.39
2018-09-18T04:09:47.379Z,87.51
2018-09-18T04:09:55.849Z,87.33
2018-09-18T04:10:57.215Z,87.34
2018-09-18T04:11:57.468Z,87.70
2018-09-18T04:12:57.902Z,87.56
2018-09-18T04:13:58.550Z,87.36
2018-09-18T04:14:59.125Z,87.52
2018-09-18T04:15:59.464Z,87.49
2018-09-18T04:16:59.832Z,87.43
2018-09-18T04:18:00.188Z,87.12
2018-09-18T04:19:00.818Z,87.10
2018-09-18T04:20:01.093Z,87.07
2018-09-18T04:21:01.705Z,87.28
2018-09-18T04:22:02.076Z,86.72
2018-09-18T04:23:02.550Z,86.96
2018-09-18T04:24:03.070Z,87.08
2018-09-18T04:25:03.274Z,86.91
2018-09-18T04:26:03.275Z,87.05
2018-09-18T04:27:03.546Z,86.83
2018-09-18T04:28:03.815Z,86.90
2018-09-18T04:29:04.259Z,87.24
2018-09-18T04:30:04.452Z,86.94
2018-09-18T04:31:04.870Z,87.26
2018-09-18T04:32:05.112Z,86.82
2018-09-18T04:33:05.475Z,87.05
2018-09-18T04:34:05.775Z,87.29
2018-09-18T04:35:06.077Z,87.15
2018-09-18T04:36:06.312Z,86.99
2018-09-18T04:37:06.824Z,86.86
2018-09-18T04:38:07.262Z,87.42
2018-09-18T04:39:07.495Z,87.31
2018-09-18T04:40:07.961Z,88.26
2018-09-18T04:41:08.272Z,87.66
2018-09-18T04:42:08.548Z,88.11
2018-09-18T04:43:09.053Z,87.88
2018-09-18T04:44:09.527Z,88.34
2018-09-18T04:45:10.125Z,88.33
2018-09-18T04:46:10.838Z,88.71
2018-09-18T04:47:11.116Z,88.95
2018-09-18T04:48:11.801Z,88.80
2018-09-18T04:49:12.550Z,88.46
2018-09-18T04:50:12.775Z,88.32
2018-09-18T04:51:13.004Z,88.23
2018-09-18T04:52:13.331Z,88.18
2018-09-18T04:53:13.688Z,88.58
2018-09-18T04:53:21.815Z,88.13
2018-09-18T04:54:23.147Z,88.10
2018-09-18T04:55:23.598Z,88.67
2018-09-18T04:56:23.885Z,88.18
2018-09-18T04:57:24.182Z,88.65
2018-09-18T04:58:24.442Z,88.66
2018-09-18T04:59:24.765Z,88.59
2018-09-18T05:00:25.195Z,88.38
2018-09-18T05:01:25.731Z,87.97
2018-09-18T05:02:26.043Z,88.06
2018-09-18T05:03:26.299Z,88.04
2018-09-18T05:04:26.608Z,88.47
2018-09-18T05:05:26.901Z,88.64
2018-09-18T05:06:27.414Z,88.60
2018-09-18T05:07:27.670Z,88.71
2018-09-18T05:08:28.080Z,88.74
2018-09-18T05:09:28.987Z,88.89
2018-09-18T05:10:28.550Z,89.00
2018-09-18T05:11:30.179Z,88.77
2018-09-18T05:12:31.793Z,89.16
2018-09-18T05:13:31.372Z,89.02
2018-09-18T05:14:31.489Z,88.79
2018-09-18T05:15:32.344Z,88.71
2018-09-18T05:16:32.692Z,88.85
2018-09-18T05:17:33.063Z,88.71
2018-09-18T05:18:32.642Z,88.74
2018-09-18T05:19:32.950Z,88.72
2018-09-18T05:20:34.492Z,89.04
2018-09-18T05:21:35.236Z,88.91
2018-09-18T05:22:35.588Z,88.65
2018-09-18T05:23:35.833Z,88.84
2018-09-18T05:24:36.334Z,89.07
2018-09-18T05:25:36.789Z,88.79
2018-09-18T05:26:36.038Z,89.06
2018-09-18T05:27:37.529Z,89.24
2018-09-18T05:28:37.667Z,89.20
2018-09-18T05:29:37.972Z,89.12
2018-09-18T05:30:38.364Z,88.92
2018-09-18T05:31:38.985Z,88.81
2018-09-18T05:32:39.309Z,89.28
2018-09-18T05:33:40.016Z,89.07
2018-09-18T05:34:39.319Z,88.89
2018-09-18T05:35:40.639Z,88.80
2018-09-18T05:36:41.043Z,88.46
2018-09-18T05:37:41.252Z,88.42
2018-09-18T05:38:41.521Z,88.08
2018-09-18T05:39:41.791Z,88.58
2018-09-18T05:40:42.174Z,88.77
2018-09-18T05:41:42.543Z,88.54
2018-09-18T05:41:51.029Z,88.92
2018-09-18T05:42:50.681Z,88.89
2018-09-18T05:43:52.008Z,88.90
2018-09-18T05:44:52.300Z,88.78
2018-09-18T05:45:52.666Z,88.65
2018-09-18T05:46:53.448Z,88.99
2018-09-18T05:47:53.882Z,88.71
2018-09-18T05:48:54.126Z,88.64
2018-09-18T05:49:54.657Z,88.75
2018-09-18T05:50:55.014Z,88.90
2018-09-18T05:51:55.263Z,88.60
2018-09-18T05:52:55.938Z,88.52
2018-09-18T05:53:56.412Z,88.62
2018-09-18T05:54:56.635Z,88.26
2018-09-18T05:55:57.125Z,88.55
2018-09-18T05:56:57.531Z,89.11
2018-09-18T05:57:58.098Z,88.56
2018-09-18T05:58:58.220Z,88.49
2018-09-18T05:59:58.492Z,88.58
2018-09-18T06:00:58.229Z,88.40
2018-09-18T06:01:59.757Z,88.80
2018-09-18T06:03:00.017Z,88.92
2018-09-18T06:04:00.365Z,88.70
2018-09-18T06:05:00.674Z,88.71
2018-09-18T06:06:01.002Z,88.34
2018-09-18T06:07:01.277Z,88.13
2018-09-18T06:08:02.127Z,88.44
2018-09-18T06:09:02.681Z,88.47
2018-09-18T06:10:03.123Z,88.53
2018-09-18T06:11:03.526Z,88.29
2018-09-18T06:12:04.117Z,88.24
2018-09-18T06:13:04.491Z,88.38
2018-09-18T06:14:04.874Z,88.42
2018-09-18T06:15:05.122Z,88.39
2018-09-18T06:16:05.357Z,88.34
2018-09-18T06:17:05.752Z,87.80
2018-09-18T06:18:06.262Z,87.94
2018-09-18T06:19:06.810Z,87.99
2018-09-18T06:20:06.048Z,88.05
2018-09-18T06:21:07.654Z,87.75
2018-09-18T06:22:07.825Z,87.63
2018-09-18T06:23:08.200Z,87.52
2018-09-18T06:24:08.705Z,87.82
2018-09-18T06:25:09.133Z,87.14
2018-09-18T06:26:09.482Z,87.81
2018-09-18T06:27:08.758Z,87.60
2018-09-18T06:28:10.197Z,87.40
2018-09-18T06:29:10.527Z,87.24
2018-09-18T06:29:18.875Z,87.01
2018-09-18T06:30:20.026Z,87.03
2018-09-18T06:31:20.269Z,87.04
2018-09-18T06:32:20.608Z,87.07
2018-09-18T06:33:20.967Z,87.09
2018-09-18T06:34:21.391Z,86.97
2018-09-18T06:35:21.825Z,86.76
2018-09-18T06:36:21.317Z,86.52
2018-09-18T06:37:22.879Z,86.69
2018-09-18T06:38:23.313Z,86.46
2018-09-18T06:39:23.699Z,86.42
2018-09-18T06:40:24.538Z,86.31
2018-09-18T06:41:25.196Z,86.25
2018-09-18T06:42:25.725Z,86.16
2018-09-18T06:43:25.012Z,86.31
2018-09-18T06:44:26.289Z,86.26
2018-09-18T06:45:26.541Z,86.36
2018-09-18T06:46:26.846Z,86.24
2018-09-18T06:47:27.437Z,86.09
2018-09-18T06:48:27.776Z,86.04
2018-09-18T06:49:27.990Z,86.37
2018-09-18T06:50:28.335Z,86.50
2018-09-18T06:51:28.560Z,86.72
2018-09-18T06:52:28.795Z,86.58
2018-09-18T06:53:29.098Z,86.65
2018-09-18T06:54:29.375Z,86.64
2018-09-18T06:55:29.997Z,86.39
2018-09-18T06:56:30.476Z,86.06
2018-09-18T06:57:30.905Z,86.65
2018-09-18T06:58:31.883Z,86.43
2018-09-18T06:59:32.304Z,86.33
2018-09-18T07:00:32.773Z,86.73
2018-09-18T07:01:33.044Z,86.59
2018-09-18T07:02:33.729Z,86.46
2018-09-18T07:03:34.191Z,86.28
2018-09-18T07:04:34.574Z,85.89
2018-09-18T07:05:34.798Z,85.41
2018-09-18T07:06:34.996Z,84.75
2018-09-18T07:07:35.280Z,84.53
2018-09-18T07:08:35.693Z,84.71
2018-09-18T07:09:35.969Z,85.01
2018-09-18T07:10:36.613Z,84.83
2018-09-18T07:11:37.111Z,84.38
2018-09-18T07:12:37.873Z,84.51
2018-09-18T07:13:38.149Z,84.82
2018-09-18T07:13:46.534Z,84.87
2018-09-18T07:14:47.952Z,84.79
2018-09-18T07:15:48.206Z,84.59
2018-09-18T07:16:48.884Z,84.18
2018-09-18T07:17:49.308Z,83.76
2018-09-18T07:18:49.720Z,83.91
2018-09-18T07:19:50.018Z,83.69
2018-09-18T07:20:50.652Z,83.87
2018-09-18T07:21:51.289Z,83.53
2018-09-18T07:22:51.795Z,83.10
2018-09-18T07:23:52.251Z,82.54
2018-09-18T07:24:52.704Z,81.48
2018-09-18T07:25:51.928Z,80.10
2018-09-18T07:26:53.319Z,77.91
2018-09-18T07:27:53.719Z,75.78
2018-09-18T07:28:54.197Z,73.06
2018-09-18T07:29:54.493Z,70.89
2018-09-18T07:30:55.015Z,68.77
2018-09-18T07:31:55.315Z,66.39
2018-09-18T07:32:55.916Z,64.47
2018-09-18T07:33:56.304Z,63.07
2018-09-18T07:34:55.718Z,61.49
2018-09-18T07:35:57.077Z,59.79
2018-09-18T07:36:57.382Z,58.85
2018-09-18T07:37:57.803Z,57.85
2018-09-18T07:38:58.373Z,55.40
2018-09-18T07:39:58.886Z,54.74
2018-09-18T07:40:59.171Z,52.47
2018-09-18T07:41:58.467Z,49.50
2018-09-18T07:42:59.864Z,49.09
2018-09-18T07:44:00.285Z,48.48
2018-09-18T07:45:00.606Z,47.89
2018-09-18T07:46:00.945Z,48.81
2018-09-18T07:47:01.781Z,47.86
2018-09-18T07:48:01.993Z,48.05
2018-09-18T07:49:02.267Z,47.67
2018-09-18T07:50:02.570Z,45.92
2018-09-18T07:51:02.191Z,45.89
2018-09-18T07:52:04.042Z,46.79
2018-09-18T07:53:03.349Z,46.54
2018-09-18T07:54:04.392Z,46.82
2018-09-18T07:55:04.844Z,45.71
2018-09-18T07:56:05.115Z,46.35
2018-09-18T07:57:05.429Z,45.26
2018-09-18T07:58:05.659Z,43.37
2018-09-18T07:59:06.294Z,42.72
2018-09-18T08:00:06.545Z,41.70
2018-09-18T08:00:14.655Z,40.72
2018-09-18T08:01:15.993Z,40.60
2018-09-18T08:02:16.895Z,41.30
2018-09-18T08:03:17.339Z,41.23
2018-09-18T08:04:16.624Z,39.57
2018-09-18T08:05:17.960Z,40.16
2018-09-18T08:06:18.408Z,40.75
2018-09-18T08:07:19.025Z,41.11
2018-09-18T08:08:19.316Z,41.26
2018-09-18T08:09:19.619Z,40.57
2018-09-18T08:10:20.378Z,41.06
2018-09-18T08:11:21.193Z,41.30
2018-09-18T08:12:21.734Z,41.05
2018-09-18T08:13:22.635Z,41.05
2018-09-18T08:14:23.275Z,39.95
2018-09-18T08:15:23.591Z,39.40
2018-09-18T08:16:24.154Z,40.38
2018-09-18T08:17:24.476Z,41.37
2018-09-18T08:18:25.304Z,42.18
2018-09-18T08:19:25.684Z,42.64
2018-09-18T08:20:25.259Z,43.00
2018-09-18T08:21:26.860Z,43.61
2018-09-18T08:22:27.605Z,43.66
2018-09-18T08:23:27.802Z,42.96
2018-09-18T08:24:28.334Z,42.40
2018-09-18T08:25:28.637Z,42.92
2018-09-18T08:26:28.086Z,42.23
2018-09-18T08:27:29.353Z,42.78
2018-09-18T08:28:29.711Z,42.96
2018-09-18T08:29:30.012Z,43.70
2018-09-18T08:30:30.224Z,43.39
2018-09-18T08:31:30.769Z,43.51
2018-09-18T08:32:31.291Z,45.32
2018-09-18T08:33:30.554Z,44.78
2018-09-18T08:34:32.230Z,44.68
2018-09-18T08:35:32.710Z,45.58
2018-09-18T08:36:33.235Z,46.57
2018-09-18T08:37:33.574Z,46.39
2018-09-18T08:38:34.104Z,47.31
2018-09-18T08:39:34.474Z,46.99
2018-09-18T08:40:34.303Z,46.08
2018-09-18T08:41:35.879Z,46.18
2018-09-18T08:42:36.636Z,46.27
2018-09-18T08:43:37.265Z,45.97
2018-09-18T08:44:37.543Z,46.34
2018-09-18T08:45:37.997Z,45.82
2018-09-18T08:46:38.278Z,47.05
2018-09-18T08:46:46.629Z,47.55
2018-09-18T08:47:48.007Z,47.60
2018-09-18T08:48:48.404Z,48.75
2018-09-18T08:49:48.750Z,48.31
2018-09-18T08:50:49.289Z,48.72
2018-09-18T08:51:49.937Z,48.07
2018-09-18T08:52:49.604Z,46.64
2018-09-18T08:53:50.952Z,45.96
2018-09-18T08:54:51.317Z,45.53
2018-09-18T08:55:51.681Z,45.54
2018-09-18T08:56:52.388Z,45.33
2018-09-18T08:57:52.951Z,45.90
2018-09-18T08:58:53.227Z,46.71
2018-09-18T08:59:52.872Z,47.24
2018-09-18T09:00:54.720Z,46.27
2018-09-18T09:01:55.285Z,46.60
2018-09-18T09:02:55.660Z,46.62
2018-09-18T09:03:56.292Z,47.51
2018-09-18T09:04:55.594Z,47.39
2018-09-18T09:05:56.738Z,47.68
2018-09-18T09:06:56.304Z,47.91
2018-09-18T09:07:58.261Z,48.01
2018-09-18T09:08:57.517Z,47.67
2018-09-18T09:09:57.698Z,48.48
2018-09-18T09:10:59.175Z,48.12
2018-09-18T09:11:58.302Z,47.65
2018-09-18T09:12:59.579Z,47.93
2018-09-18T09:14:00.032Z,48.13
2018-09-18T09:15:00.510Z,48.39
2018-09-18T09:15:59.731Z,48.29
2018-09-18T09:17:01.132Z,48.07
2018-09-18T09:18:01.270Z,48.66
2018-09-18T09:19:01.116Z,48.11
2018-09-18T09:20:02.857Z,48.21
2018-09-18T09:21:02.502Z,48.57
2018-09-18T09:22:02.820Z,48.67
2018-09-18T09:23:03.104Z,48.79
2018-09-18T09:24:03.297Z,48.55
2018-09-18T09:25:05.096Z,48.73
2018-09-18T09:26:05.676Z,48.87
2018-09-18T09:27:06.191Z,49.01
2018-09-18T09:28:06.645Z,49.18
2018-09-18T09:29:07.226Z,49.39
2018-09-18T09:30:07.439Z,48.98
2018-09-18T09:31:06.679Z,48.98
2018-09-18T09:32:07.996Z,49.12
2018-09-18T09:33:07.322Z,49.63
2018-09-18T09:34:08.788Z,49.79
2018-09-18T09:35:09.214Z,49.52
2018-09-18T09:36:09.984Z,49.31
2018-09-18T09:37:09.578Z,50.16
2018-09-18T09:38:09.975Z,49.92
2018-09-18T09:39:11.337Z,49.22
2018-09-18T09:40:11.715Z,49.99
2018-09-18T09:41:12.137Z,49.37
2018-09-18T09:42:12.862Z,49.88
2018-09-18T09:43:13.522Z,49.99
2018-09-18T09:44:13.757Z,49.89
2018-09-18T09:44:22.136Z,50.61
2018-09-18T09:45:23.422Z,50.61
2018-09-18T09:46:24.382Z,51.18
2018-09-18T09:47:24.930Z,51.01
2018-09-18T09:48:25.282Z,50.19
2018-09-18T09:49:25.699Z,50.40
2018-09-18T09:50:26.649Z,50.12
2018-09-18T09:51:27.090Z,49.77
2018-09-18T09:52:26.675Z,49.64
2018-09-18T09:53:28.184Z,48.97
2018-09-18T09:54:28.939Z,48.60
2018-09-18T09:55:29.341Z,49.22
2018-09-18T09:56:29.917Z,49.47
2018-09-18T09:57:30.605Z,49.98
2018-09-18T09:58:31.358Z,50.35
2018-09-18T09:59:32.316Z,50.38
2018-09-18T10:00:31.568Z,50.28
2018-09-18T10:01:33.115Z,50.48
2018-09-18T10:02:32.401Z,49.87
2018-09-18T10:03:33.935Z,48.19
2018-09-18T10:04:34.253Z,48.00
2018-09-18T10:05:34.931Z,48.14
2018-09-18T10:06:35.038Z,48.26
2018-09-18T10:07:35.338Z,49.40
2018-09-18T10:08:35.648Z,48.16
2018-09-18T10:09:36.046Z,47.44
2018-09-18T10:10:35.888Z,48.20
2018-09-18T10:11:36.721Z,48.40
2018-09-18T10:12:38.682Z,48.04
2018-09-18T10:13:39.523Z,48.98
2018-09-18T10:14:39.189Z,49.94
2018-09-18T10:15:39.732Z,49.95
2018-09-18T10:16:40.310Z,50.33
2018-09-18T10:17:41.261Z,50.07
2018-09-18T10:18:41.778Z,49.66
2018-09-18T10:19:43.122Z,50.36
2018-09-18T10:20:43.955Z,49.94
2018-09-18T10:21:44.274Z,49.85
2018-09-18T10:22:44.579Z,50.40
2018-09-18T10:23:45.079Z,48.30
2018-09-18T10:24:45.550Z,48.59
2018-09-18T10:25:46.345Z,48.07
2018-09-18T10:26:46.969Z,48.50
2018-09-18T10:27:46.392Z,48.56
2018-09-18T10:28:48.233Z,48.92
2018-09-18T10:29:48.605Z,48.15
2018-09-18T10:30:49.494Z,46.95
2018-09-18T10:31:49.543Z,47.06
2018-09-18T10:32:50.302Z,47.10
2018-09-18T10:33:49.683Z,46.06
2018-09-18T10:34:50.990Z,45.78
2018-09-18T10:35:51.951Z,45.54
2018-09-18T10:36:52.332Z,45.71
2018-09-18T10:38:13.744Z,45.39
2018-09-18T10:39:14.307Z,45.33
2018-09-18T10:40:13.763Z,45.21
2018-09-18T10:41:15.387Z,44.72
2018-09-18T10:42:14.872Z,44.79
2018-09-18T10:43:15.310Z,44.65
2018-09-18T10:44:16.846Z,44.73
2018-09-18T10:45:17.682Z,44.72
2018-09-18T10:46:18.566Z,44.86
2018-09-18T10:47:18.916Z,43.97
2018-09-18T10:48:19.565Z,43.90
2018-09-18T10:49:19.832Z,43.75
2018-09-18T10:50:20.193Z,43.19
2018-09-18T10:51:20.590Z,43.66
2018-09-18T10:52:21.574Z,43.63
2018-09-18T10:53:22.083Z,43.17
2018-09-18T10:54:22.909Z,43.47
2018-09-18T10:55:23.707Z,42.74
2018-09-18T10:56:23.229Z,43.23
2018-09-18T10:57:24.821Z,43.41
2018-09-18T10:58:25.468Z,43.46
2018-09-18T10:59:25.885Z,43.26
2018-09-18T11:00:26.191Z,42.81
2018-09-18T11:01:26.222Z,42.54
2018-09-18T11:02:27.059Z,42.34
2018-09-18T11:03:27.872Z,42.30
2018-09-18T11:04:28.188Z,42.36
2018-09-18T11:05:28.697Z,42.39
2018-09-18T11:06:30.121Z,42.41
2018-09-18T11:07:29.791Z,42.50
2018-09-18T11:08:30.450Z,42.26
2018-09-18T11:09:29.973Z,41.99
2018-09-18T11:10:30.429Z,42.29
2018-09-18T11:11:31.897Z,42.27
2018-09-18T11:12:31.308Z,42.51
2018-09-18T11:13:32.805Z,42.64
2018-09-18T11:14:32.263Z,42.72
2018-09-18T11:15:34.006Z,42.72
2018-09-18T11:16:33.339Z,42.67
2018-09-18T11:17:33.807Z,42.54
2018-09-18T11:18:35.504Z,42.76
2018-09-18T11:19:35.950Z,42.72
2018-09-18T11:20:35.453Z,42.87
2018-09-18T11:21:35.957Z,43.27
2018-09-18T11:22:36.363Z,43.16
2018-09-18T11:23:37.942Z,43.41
2018-09-18T11:24:37.352Z,43.58
2018-09-18T11:25:38.989Z,43.69
2018-09-18T11:26:38.901Z,43.76
2018-09-18T11:27:40.273Z,43.86
2018-09-18T11:28:39.938Z,44.00
2018-09-18T11:29:40.216Z,43.93
2018-09-18T11:30:41.674Z,44.24
2018-09-18T11:31:42.152Z,44.38
2018-09-18T11:32:42.584Z,44.84
2018-09-18T11:33:42.114Z,45.07
2018-09-18T11:34:42.901Z,45.35
2018-09-18T11:35:43.958Z,45.17
2018-09-18T11:35:57.948Z,45.33
2018-09-18T11:36:58.617Z,45.38
2018-09-18T11:37:59.099Z,45.47
2018-09-18T11:38:59.651Z,45.30
2018-09-18T11:40:00.324Z,45.86
2018-09-18T11:41:00.564Z,45.61
2018-09-18T11:42:00.736Z,45.92
2018-09-18T11:43:01.047Z,46.10
2018-09-18T11:44:01.444Z,46.10
2018-09-18T11:45:01.780Z,46.05
2018-09-18T11:46:02.135Z,46.05
2018-09-18T11:47:00.971Z,45.92
2018-09-18T11:48:02.489Z,45.89
2018-09-18T11:49:02.964Z,45.93
2018-09-18T11:50:03.445Z,46.05
2018-09-18T11:51:04.317Z,46.33
2018-09-18T11:52:03.924Z,46.37
2018-09-18T11:53:05.467Z,46.54
2018-09-18T11:54:05.972Z,46.53
2018-09-18T11:55:06.371Z,46.64
2018-09-18T11:56:06.673Z,46.66
2018-09-18T11:57:07.334Z,46.60
2018-09-18T11:58:06.543Z,46.56
2018-09-18T11:59:07.941Z,46.82
2018-09-18T12:00:08.916Z,46.66
2018-09-18T12:01:09.117Z,46.68
2018-09-18T12:02:09.660Z,46.50
2018-09-18T12:03:10.470Z,46.56
2018-09-18T12:04:09.709Z,46.49
2018-09-18T12:05:11.372Z,46.69
2018-09-18T12:06:11.064Z,47.06
2018-09-18T12:07:12.586Z,47.00
2018-09-18T12:08:12.941Z,46.92
2018-09-18T12:09:13.403Z,46.83
2018-09-18T12:10:12.704Z,46.96
2018-09-18T12:11:14.114Z,46.79
2018-09-18T12:12:14.645Z,46.85
2018-09-18T12:13:15.004Z,47.00
2018-09-18T12:14:15.461Z,46.94
2018-09-18T12:15:16.143Z,46.93
2018-09-18T12:16:16.883Z,46.89
2018-09-18T12:17:17.591Z,46.53
2018-09-18T12:18:18.088Z,46.73
2018-09-18T12:19:18.589Z,46.86
2018-09-18T12:20:19.533Z,46.97
2018-09-18T12:21:20.096Z,46.90
2018-09-18T12:22:20.642Z,47.02
2018-09-18T12:23:20.319Z,47.16
2018-09-18T12:24:21.410Z,47.03
2018-09-18T12:25:21.824Z,47.20
2018-09-18T12:25:29.874Z,47.24
2018-09-18T12:26:31.496Z,47.22
2018-09-18T12:27:32.043Z,47.11
2018-09-18T12:28:31.622Z,47.24
2018-09-18T12:29:31.927Z,47.02
2018-09-18T12:30:33.229Z,46.92
2018-09-18T12:31:33.749Z,46.91
2018-09-18T12:32:34.199Z,47.05
2018-09-18T12:33:34.722Z,47.05
2018-09-18T12:34:35.029Z,46.95
2018-09-18T12:35:35.619Z,46.88
2018-09-18T12:36:35.207Z,46.70
2018-09-18T12:37:36.933Z,46.78
2018-09-18T12:38:37.627Z,46.86
2018-09-18T12:39:38.299Z,46.81
2018-09-18T12:40:38.711Z,46.80
2018-09-18T12:41:39.286Z,46.46
2018-09-18T12:42:39.224Z,46.42
2018-09-18T12:43:39.581Z,46.20
2018-09-18T12:44:41.206Z,46.69
2018-09-18T12:45:41.589Z,46.40
2018-09-18T12:46:41.945Z,46.18